sensor_id;sensor_type;location;lat;lon;timestamp;P1;durP1;ratioP1;P2;durP2;ratioP2
30462;SDS011;17256;43.618;25.336;2023-05-10T00:01:28;17.43;;;15.60;;
30462;SDS011;17256;43.618;25.336;2023-05-10T00:03:54;16.97;;;15.33;;
30462;SDS011;17256;43.618;25.336;2023-05-10T00:06:19;17.93;;;16.03;;
30462;SDS011;17256;43.618;25.336;2023-05-10T00:08:45;18.17;;;16.30;;
30462;SDS011;17256;43.618;25.336;2023-05-10T00:11:11;16.93;;;15.33;;
30462;SDS011;17256;43.618;25.336;2023-05-10T00:13:36;17.30;;;15.47;;
30462;SDS011;17256;43.618;25.336;2023-05-10T00:16:02;16.73;;;15.10;;
30462;SDS011;17256;43.618;25.336;2023-05-10T00:18:27;16.63;;;15.03;;
30462;SDS011;17256;43.618;25.336;2023-05-10T00:20:53;17.27;;;15.67;;
30462;SDS011;17256;43.618;25.336;2023-05-10T00:23:18;17.83;;;16.23;;
30462;SDS011;17256;43.618;25.336;2023-05-10T00:25:44;19.63;;;17.23;;
30462;SDS011;17256;43.618;25.336;2023-05-10T00:28:10;17.37;;;15.50;;
30462;SDS011;17256;43.618;25.336;2023-05-10T00:30:36;17.30;;;15.57;;
30462;SDS011;17256;43.618;25.336;2023-05-10T00:33:02;17.50;;;15.70;;
30462;SDS011;17256;43.618;25.336;2023-05-10T00:35:28;16.10;;;14.57;;
30462;SDS011;17256;43.618;25.336;2023-05-10T00:37:53;18.40;;;16.50;;
30462;SDS011;17256;43.618;25.336;2023-05-10T00:40:19;17.23;;;15.43;;
30462;SDS011;17256;43.618;25.336;2023-05-10T00:42:50;18.37;;;16.07;;
30462;SDS011;17256;43.618;25.336;2023-05-10T00:45:15;17.87;;;15.97;;
30462;SDS011;17256;43.618;25.336;2023-05-10T00:47:41;16.93;;;15.20;;
30462;SDS011;17256;43.618;25.336;2023-05-10T00:50:07;17.13;;;15.40;;
30462;SDS011;17256;43.618;25.336;2023-05-10T00:52:34;16.13;;;14.43;;
30462;SDS011;17256;43.618;25.336;2023-05-10T00:54:59;16.40;;;14.00;;
30462;SDS011;17256;43.618;25.336;2023-05-10T00:57:25;19.37;;;15.77;;
30462;SDS011;17256;43.618;25.336;2023-05-10T00:59:51;18.67;;;16.03;;
30462;SDS011;17256;43.618;25.336;2023-05-10T01:02:17;17.13;;;15.23;;
30462;SDS011;17256;43.618;25.336;2023-05-10T01:04:43;18.13;;;16.13;;
30462;SDS011;17256;43.618;25.336;2023-05-10T01:07:08;18.13;;;16.43;;
30462;SDS011;17256;43.618;25.336;2023-05-10T01:09:34;18.47;;;16.80;;
30462;SDS011;17256;43.618;25.336;2023-05-10T01:12:00;18.40;;;16.40;;
30462;SDS011;17256;43.618;25.336;2023-05-10T01:14:28;18.07;;;16.27;;
30462;SDS011;17256;43.618;25.336;2023-05-10T01:16:54;23.80;;;18.20;;
30462;SDS011;17256;43.618;25.336;2023-05-10T01:19:25;21.17;;;18.03;;
30462;SDS011;17256;43.618;25.336;2023-05-10T01:24:46;19.77;;;17.23;;
30462;SDS011;17256;43.618;25.336;2023-05-10T01:30:15;18.80;;;16.83;;
30462;SDS011;17256;43.618;25.336;2023-05-10T01:35:43;19.77;;;17.67;;
30462;SDS011;17256;43.618;25.336;2023-05-10T01:38:18;21.97;;;18.70;;
30462;SDS011;17256;43.618;25.336;2023-05-10T01:44:04;20.77;;;18.60;;
30462;SDS011;17256;43.618;25.336;2023-05-10T01:46:58;20.03;;;18.03;;
30462;SDS011;17256;43.618;25.336;2023-05-10T01:49:30;21.17;;;18.87;;
30462;SDS011;17256;43.618;25.336;2023-05-10T01:52:35;21.00;;;18.80;;
30462;SDS011;17256;43.618;25.336;2023-05-10T01:55:07;21.03;;;18.90;;
30462;SDS011;17256;43.618;25.336;2023-05-10T01:57:36;21.50;;;19.43;;
30462;SDS011;17256;43.618;25.336;2023-05-10T02:00:07;21.20;;;19.00;;
30462;SDS011;17256;43.618;25.336;2023-05-10T02:02:41;19.00;;;16.90;;
30462;SDS011;17256;43.618;25.336;2023-05-10T02:05:11;20.60;;;18.40;;
30462;SDS011;17256;43.618;25.336;2023-05-10T02:07:38;20.53;;;16.93;;
30462;SDS011;17256;43.618;25.336;2023-05-10T02:10:06;19.30;;;17.30;;
30462;SDS011;17256;43.618;25.336;2023-05-10T02:12:44;19.27;;;17.27;;
30462;SDS011;17256;43.618;25.336;2023-05-10T02:15:12;22.53;;;18.90;;
30462;SDS011;17256;43.618;25.336;2023-05-10T02:17:43;20.63;;;18.50;;
30462;SDS011;17256;43.618;25.336;2023-05-10T02:20:09;21.73;;;18.83;;
30462;SDS011;17256;43.618;25.336;2023-05-10T02:22:37;20.23;;;18.13;;
30462;SDS011;17256;43.618;25.336;2023-05-10T02:25:04;20.80;;;18.13;;
30462;SDS011;17256;43.618;25.336;2023-05-10T02:27:31;21.33;;;19.17;;
30462;SDS011;17256;43.618;25.336;2023-05-10T02:29:59;20.47;;;18.17;;
30462;SDS011;17256;43.618;25.336;2023-05-10T02:32:26;20.37;;;17.70;;
30462;SDS011;17256;43.618;25.336;2023-05-10T02:34:52;20.40;;;18.23;;
30462;SDS011;17256;43.618;25.336;2023-05-10T02:37:20;23.60;;;19.57;;
30462;SDS011;17256;43.618;25.336;2023-05-10T02:39:47;22.00;;;19.80;;
30462;SDS011;17256;43.618;25.336;2023-05-10T02:42:19;20.83;;;18.77;;
30462;SDS011;17256;43.618;25.336;2023-05-10T02:44:50;20.87;;;18.57;;
30462;SDS011;17256;43.618;25.336;2023-05-10T02:47:18;22.50;;;20.17;;
30462;SDS011;17256;43.618;25.336;2023-05-10T02:49:44;21.20;;;19.03;;
30462;SDS011;17256;43.618;25.336;2023-05-10T02:52:10;22.33;;;20.07;;
30462;SDS011;17256;43.618;25.336;2023-05-10T02:54:43;22.80;;;19.13;;
30462;SDS011;17256;43.618;25.336;2023-05-10T02:57:14;22.90;;;20.37;;
30462;SDS011;17256;43.618;25.336;2023-05-10T02:59:43;26.23;;;21.13;;
30462;SDS011;17256;43.618;25.336;2023-05-10T03:02:10;23.80;;;21.37;;
30462;SDS011;17256;43.618;25.336;2023-05-10T03:04:39;25.27;;;22.17;;
30462;SDS011;17256;43.618;25.336;2023-05-10T03:07:04;38.70;;;33.23;;
30462;SDS011;17256;43.618;25.336;2023-05-10T03:09:35;32.33;;;23.57;;
30462;SDS011;17256;43.618;25.336;2023-05-10T03:15:00;28.33;;;22.93;;
30462;SDS011;17256;43.618;25.336;2023-05-10T03:20:12;29.83;;;21.73;;
30462;SDS011;17256;43.618;25.336;2023-05-10T03:22:49;26.13;;;22.37;;
30462;SDS011;17256;43.618;25.336;2023-05-10T03:25:19;26.17;;;20.93;;
30462;SDS011;17256;43.618;25.336;2023-05-10T03:27:47;32.30;;;22.27;;
30462;SDS011;17256;43.618;25.336;2023-05-10T03:30:13;25.50;;;21.27;;
30462;SDS011;17256;43.618;25.336;2023-05-10T03:32:40;23.00;;;20.33;;
30462;SDS011;17256;43.618;25.336;2023-05-10T03:35:07;24.13;;;20.57;;
30462;SDS011;17256;43.618;25.336;2023-05-10T03:37:37;26.17;;;21.37;;
30462;SDS011;17256;43.618;25.336;2023-05-10T03:40:03;25.30;;;20.13;;
30462;SDS011;17256;43.618;25.336;2023-05-10T03:42:32;23.13;;;19.37;;
30462;SDS011;17256;43.618;25.336;2023-05-10T03:44:58;28.17;;;24.97;;
30462;SDS011;17256;43.618;25.336;2023-05-10T03:47:24;22.87;;;19.20;;
30462;SDS011;17256;43.618;25.336;2023-05-10T03:49:50;22.20;;;20.00;;
30462;SDS011;17256;43.618;25.336;2023-05-10T03:52:18;20.10;;;17.97;;
30462;SDS011;17256;43.618;25.336;2023-05-10T03:55:33;24.27;;;21.73;;
30462;SDS011;17256;43.618;25.336;2023-05-10T03:58:51;26.63;;;23.73;;
30462;SDS011;17256;43.618;25.336;2023-05-10T04:01:24;31.13;;;21.33;;
30462;SDS011;17256;43.618;25.336;2023-05-10T04:04:06;78.27;;;19.70;;
30462;SDS011;17256;43.618;25.336;2023-05-10T04:34:43;19.60;;;17.53;;
30462;SDS011;17256;43.618;25.336;2023-05-10T04:37:09;25.17;;;22.67;;
30462;SDS011;17256;43.618;25.336;2023-05-10T04:43:46;17.73;;;14.97;;
30462;SDS011;17256;43.618;25.336;2023-05-10T04:51:09;16.53;;;14.73;;
30462;SDS011;17256;43.618;25.336;2023-05-10T04:55:43;15.30;;;13.80;;
30462;SDS011;17256;43.618;25.336;2023-05-10T05:03:18;13.93;;;12.10;;
30462;SDS011;17256;43.618;25.336;2023-05-10T05:07:39;14.47;;;13.07;;
30462;SDS011;17256;43.618;25.336;2023-05-10T05:12:01;19.03;;;17.10;;
30462;SDS011;17256;43.618;25.336;2023-05-10T05:14:27;19.30;;;17.17;;
30462;SDS011;17256;43.618;25.336;2023-05-10T05:16:52;18.30;;;16.37;;
30462;SDS011;17256;43.618;25.336;2023-05-10T05:19:18;17.70;;;15.90;;
30462;SDS011;17256;43.618;25.336;2023-05-10T05:21:43;13.73;;;12.33;;
30462;SDS011;17256;43.618;25.336;2023-05-10T05:24:09;15.10;;;13.60;;
30462;SDS011;17256;43.618;25.336;2023-05-10T05:26:37;14.43;;;13.13;;
30462;SDS011;17256;43.618;25.336;2023-05-10T05:29:02;12.83;;;11.73;;
30462;SDS011;17256;43.618;25.336;2023-05-10T05:31:28;17.50;;;12.40;;
30462;SDS011;17256;43.618;25.336;2023-05-10T05:33:54;14.40;;;13.00;;
30462;SDS011;17256;43.618;25.336;2023-05-10T05:36:20;13.70;;;12.37;;
30462;SDS011;17256;43.618;25.336;2023-05-10T05:38:46;13.13;;;12.03;;
30462;SDS011;17256;43.618;25.336;2023-05-10T05:41:12;12.63;;;11.43;;
30462;SDS011;17256;43.618;25.336;2023-05-10T05:43:38;13.50;;;12.30;;
30462;SDS011;17256;43.618;25.336;2023-05-10T05:46:04;12.93;;;11.80;;
30462;SDS011;17256;43.618;25.336;2023-05-10T05:48:30;13.60;;;12.37;;
30462;SDS011;17256;43.618;25.336;2023-05-10T05:50:56;12.97;;;11.83;;
30462;SDS011;17256;43.618;25.336;2023-05-10T05:53:22;13.07;;;11.90;;
30462;SDS011;17256;43.618;25.336;2023-05-10T05:55:58;14.00;;;12.63;;
30462;SDS011;17256;43.618;25.336;2023-05-10T05:58:24;12.90;;;11.70;;
30462;SDS011;17256;43.618;25.336;2023-05-10T06:00:51;12.43;;;11.33;;
30462;SDS011;17256;43.618;25.336;2023-05-10T06:03:17;13.37;;;12.07;;
30462;SDS011;17256;43.618;25.336;2023-05-10T06:05:43;12.87;;;11.60;;
30462;SDS011;17256;43.618;25.336;2023-05-10T06:08:09;13.73;;;11.60;;
30462;SDS011;17256;43.618;25.336;2023-05-10T06:10:35;12.53;;;11.10;;
30462;SDS011;17256;43.618;25.336;2023-05-10T06:13:00;14.60;;;11.23;;
30462;SDS011;17256;43.618;25.336;2023-05-10T06:15:26;11.37;;;10.17;;
30462;SDS011;17256;43.618;25.336;2023-05-10T06:17:52;11.63;;;10.53;;
30462;SDS011;17256;43.618;25.336;2023-05-10T06:20:18;12.13;;;10.93;;
30462;SDS011;17256;43.618;25.336;2023-05-10T06:22:43;9.43;;;8.33;;
30462;SDS011;17256;43.618;25.336;2023-05-10T06:25:09;8.93;;;7.83;;
30462;SDS011;17256;43.618;25.336;2023-05-10T06:27:35;10.00;;;9.00;;
30462;SDS011;17256;43.618;25.336;2023-05-10T06:30:00;8.53;;;7.73;;
30462;SDS011;17256;43.618;25.336;2023-05-10T06:32:27;7.57;;;6.87;;
30462;SDS011;17256;43.618;25.336;2023-05-10T06:34:53;10.90;;;7.27;;
30462;SDS011;17256;43.618;25.336;2023-05-10T06:37:19;8.53;;;7.17;;
30462;SDS011;17256;43.618;25.336;2023-05-10T06:39:45;9.53;;;7.30;;
30462;SDS011;17256;43.618;25.336;2023-05-10T06:42:10;10.10;;;7.57;;
30462;SDS011;17256;43.618;25.336;2023-05-10T06:44:36;6.43;;;5.93;;
30462;SDS011;17256;43.618;25.336;2023-05-10T06:47:02;11.50;;;6.17;;
30462;SDS011;17256;43.618;25.336;2023-05-10T06:49:27;6.10;;;5.50;;
30462;SDS011;17256;43.618;25.336;2023-05-10T06:51:57;5.37;;;4.73;;
30462;SDS011;17256;43.618;25.336;2023-05-10T06:54:22;4.90;;;4.50;;
30462;SDS011;17256;43.618;25.336;2023-05-10T06:56:48;8.60;;;4.80;;
30462;SDS011;17256;43.618;25.336;2023-05-10T06:59:14;5.27;;;4.77;;
30462;SDS011;17256;43.618;25.336;2023-05-10T07:01:41;7.67;;;5.87;;
30462;SDS011;17256;43.618;25.336;2023-05-10T07:04:07;10.60;;;7.20;;
30462;SDS011;17256;43.618;25.336;2023-05-10T07:06:33;9.27;;;6.70;;
30462;SDS011;17256;43.618;25.336;2023-05-10T07:08:59;7.10;;;5.20;;
30462;SDS011;17256;43.618;25.336;2023-05-10T07:11:25;7.57;;;4.77;;
30462;SDS011;17256;43.618;25.336;2023-05-10T07:13:51;8.73;;;7.83;;
30462;SDS011;17256;43.618;25.336;2023-05-10T07:16:17;6.17;;;4.93;;
30462;SDS011;17256;43.618;25.336;2023-05-10T07:18:42;4.93;;;4.23;;
30462;SDS011;17256;43.618;25.336;2023-05-10T07:21:08;5.07;;;4.57;;
30462;SDS011;17256;43.618;25.336;2023-05-10T07:23:34;6.40;;;4.67;;
30462;SDS011;17256;43.618;25.336;2023-05-10T07:25:59;3.73;;;3.43;;
30462;SDS011;17256;43.618;25.336;2023-05-10T07:28:25;4.00;;;3.60;;
30462;SDS011;17256;43.618;25.336;2023-05-10T07:30:50;3.63;;;3.33;;
30462;SDS011;17256;43.618;25.336;2023-05-10T07:33:16;4.63;;;3.30;;
30462;SDS011;17256;43.618;25.336;2023-05-10T07:35:42;2.73;;;2.53;;
30462;SDS011;17256;43.618;25.336;2023-05-10T07:38:08;3.00;;;2.80;;
30462;SDS011;17256;43.618;25.336;2023-05-10T07:40:33;2.73;;;2.10;;
30462;SDS011;17256;43.618;25.336;2023-05-10T07:42:59;2.63;;;1.83;;
30462;SDS011;17256;43.618;25.336;2023-05-10T07:45:27;3.20;;;2.87;;
30462;SDS011;17256;43.618;25.336;2023-05-10T07:47:53;3.77;;;3.10;;
30462;SDS011;17256;43.618;25.336;2023-05-10T07:50:19;6.07;;;2.50;;
30462;SDS011;17256;43.618;25.336;2023-05-10T07:52:46;3.37;;;2.40;;
30462;SDS011;17256;43.618;25.336;2023-05-10T07:55:12;3.93;;;2.57;;
30462;SDS011;17256;43.618;25.336;2023-05-10T07:57:38;3.63;;;2.60;;
30462;SDS011;17256;43.618;25.336;2023-05-10T08:00:04;5.63;;;2.63;;
30462;SDS011;17256;43.618;25.336;2023-05-10T08:02:38;2.10;;;2.00;;
30462;SDS011;17256;43.618;25.336;2023-05-10T08:05:04;3.43;;;2.93;;
30462;SDS011;17256;43.618;25.336;2023-05-10T08:07:30;4.50;;;3.33;;
30462;SDS011;17256;43.618;25.336;2023-05-10T08:09:56;2.70;;;2.50;;
30462;SDS011;17256;43.618;25.336;2023-05-10T08:12:21;3.13;;;2.83;;
30462;SDS011;17256;43.618;25.336;2023-05-10T08:14:47;3.70;;;2.27;;
30462;SDS011;17256;43.618;25.336;2023-05-10T08:17:12;2.70;;;2.50;;
30462;SDS011;17256;43.618;25.336;2023-05-10T08:19:38;2.90;;;2.50;;
30462;SDS011;17256;43.618;25.336;2023-05-10T08:22:04;4.33;;;2.53;;
30462;SDS011;17256;43.618;25.336;2023-05-10T08:24:29;2.93;;;2.00;;
30462;SDS011;17256;43.618;25.336;2023-05-10T08:26:55;5.73;;;3.90;;
30462;SDS011;17256;43.618;25.336;2023-05-10T08:29:20;4.63;;;3.13;;
30462;SDS011;17256;43.618;25.336;2023-05-10T08:31:46;2.40;;;2.20;;
30462;SDS011;17256;43.618;25.336;2023-05-10T08:34:11;3.83;;;2.43;;
30462;SDS011;17256;43.618;25.336;2023-05-10T08:36:37;2.50;;;2.30;;
30462;SDS011;17256;43.618;25.336;2023-05-10T08:39:02;4.07;;;2.23;;
30462;SDS011;17256;43.618;25.336;2023-05-10T08:41:28;2.67;;;2.30;;
30462;SDS011;17256;43.618;25.336;2023-05-10T08:43:58;3.17;;;2.57;;
30462;SDS011;17256;43.618;25.336;2023-05-10T08:46:28;3.90;;;2.40;;
30462;SDS011;17256;43.618;25.336;2023-05-10T08:48:55;3.40;;;3.10;;
30462;SDS011;17256;43.618;25.336;2023-05-10T08:51:24;3.90;;;2.70;;
30462;SDS011;17256;43.618;25.336;2023-05-10T08:53:53;4.47;;;3.07;;
30462;SDS011;17256;43.618;25.336;2023-05-10T08:56:19;4.30;;;3.73;;
30462;SDS011;17256;43.618;25.336;2023-05-10T08:58:46;3.00;;;2.50;;
30462;SDS011;17256;43.618;25.336;2023-05-10T09:01:12;4.07;;;3.00;;
30462;SDS011;17256;43.618;25.336;2023-05-10T09:03:39;4.00;;;2.50;;
30462;SDS011;17256;43.618;25.336;2023-05-10T09:06:05;3.97;;;3.00;;
30462;SDS011;17256;43.618;25.336;2023-05-10T09:08:32;4.43;;;2.83;;
30462;SDS011;17256;43.618;25.336;2023-05-10T09:10:58;3.07;;;2.80;;
30462;SDS011;17256;43.618;25.336;2023-05-10T09:13:26;3.50;;;2.40;;
30462;SDS011;17256;43.618;25.336;2023-05-10T09:15:52;2.93;;;2.50;;
30462;SDS011;17256;43.618;25.336;2023-05-10T09:18:18;7.20;;;3.60;;
30462;SDS011;17256;43.618;25.336;2023-05-10T09:20:44;6.27;;;3.77;;
30462;SDS011;17256;43.618;25.336;2023-05-10T09:23:10;3.80;;;3.33;;
30462;SDS011;17256;43.618;25.336;2023-05-10T09:25:35;4.53;;;3.40;;
30462;SDS011;17256;43.618;25.336;2023-05-10T09:28:02;14.10;;;7.40;;
30462;SDS011;17256;43.618;25.336;2023-05-10T09:30:32;4.17;;;2.70;;
30462;SDS011;17256;43.618;25.336;2023-05-10T09:32:58;6.73;;;4.47;;
30462;SDS011;17256;43.618;25.336;2023-05-10T09:35:25;8.20;;;6.80;;
30462;SDS011;17256;43.618;25.336;2023-05-10T09:50:28;6.30;;;3.60;;
30462;SDS011;17256;43.618;25.336;2023-05-10T09:52:59;10.37;;;5.70;;
30462;SDS011;17256;43.618;25.336;2023-05-10T09:55:26;4.20;;;3.23;;
30462;SDS011;17256;43.618;25.336;2023-05-10T09:58:04;3.30;;;2.57;;
30462;SDS011;17256;43.618;25.336;2023-05-10T10:00:35;4.73;;;3.50;;
30462;SDS011;17256;43.618;25.336;2023-05-10T10:03:02;8.30;;;5.27;;
30462;SDS011;17256;43.618;25.336;2023-05-10T10:05:33;5.97;;;3.67;;
30462;SDS011;17256;43.618;25.336;2023-05-10T10:08:00;2.83;;;2.57;;
30462;SDS011;17256;43.618;25.336;2023-05-10T10:10:28;3.23;;;2.30;;
30462;SDS011;17256;43.618;25.336;2023-05-10T10:12:55;4.43;;;3.00;;
30462;SDS011;17256;43.618;25.336;2023-05-10T10:15:21;5.23;;;3.43;;
30462;SDS011;17256;43.618;25.336;2023-05-10T10:17:48;3.10;;;2.17;;
30462;SDS011;17256;43.618;25.336;2023-05-10T10:20:14;4.70;;;3.07;;
30462;SDS011;17256;43.618;25.336;2023-05-10T10:22:41;4.77;;;2.60;;
30462;SDS011;17256;43.618;25.336;2023-05-10T10:25:07;3.90;;;2.93;;
30462;SDS011;17256;43.618;25.336;2023-05-10T10:36:19;2.10;;;2.00;;
30462;SDS011;17256;43.618;25.336;2023-05-10T10:41:27;3.33;;;2.17;;
30462;SDS011;17256;43.618;25.336;2023-05-10T10:52:36;3.50;;;3.10;;
30462;SDS011;17256;43.618;25.336;2023-05-10T10:55:05;5.70;;;2.30;;
30462;SDS011;17256;43.618;25.336;2023-05-10T11:03:11;2.17;;;2.07;;
30462;SDS011;17256;43.618;25.336;2023-05-10T11:05:43;4.50;;;2.57;;
30462;SDS011;17256;43.618;25.336;2023-05-10T11:13:32;2.93;;;2.40;;
30462;SDS011;17256;43.618;25.336;2023-05-10T11:19:02;1.90;;;1.80;;
30462;SDS011;17256;43.618;25.336;2023-05-10T11:21:29;2.20;;;2.00;;
30462;SDS011;17256;43.618;25.336;2023-05-10T11:23:56;2.70;;;2.50;;
30462;SDS011;17256;43.618;25.336;2023-05-10T11:26:23;3.23;;;3.03;;
30462;SDS011;17256;43.618;25.336;2023-05-10T11:28:52;3.30;;;2.20;;
30462;SDS011;17256;43.618;25.336;2023-05-10T11:31:23;2.90;;;2.40;;
30462;SDS011;17256;43.618;25.336;2023-05-10T11:33:53;2.60;;;2.27;;
30462;SDS011;17256;43.618;25.336;2023-05-10T11:36:24;3.97;;;2.30;;
30462;SDS011;17256;43.618;25.336;2023-05-10T11:38:51;4.53;;;2.43;;
30462;SDS011;17256;43.618;25.336;2023-05-10T11:41:18;3.30;;;2.03;;
30462;SDS011;17256;43.618;25.336;2023-05-10T11:43:47;2.17;;;1.97;;
30462;SDS011;17256;43.618;25.336;2023-05-10T11:46:15;2.50;;;2.30;;
30462;SDS011;17256;43.618;25.336;2023-05-10T11:48:43;2.17;;;1.97;;
30462;SDS011;17256;43.618;25.336;2023-05-10T11:51:09;2.10;;;2.00;;
30462;SDS011;17256;43.618;25.336;2023-05-10T11:53:37;2.50;;;2.30;;
30462;SDS011;17256;43.618;25.336;2023-05-10T11:56:04;3.63;;;2.23;;
30462;SDS011;17256;43.618;25.336;2023-05-10T11:58:31;2.30;;;2.20;;
30462;SDS011;17256;43.618;25.336;2023-05-10T12:00:58;1.90;;;1.80;;
30462;SDS011;17256;43.618;25.336;2023-05-10T12:03:25;3.57;;;2.10;;
30462;SDS011;17256;43.618;25.336;2023-05-10T12:05:51;1.77;;;1.67;;
30462;SDS011;17256;43.618;25.336;2023-05-10T12:08:19;3.23;;;1.77;;
30462;SDS011;17256;43.618;25.336;2023-05-10T12:10:47;2.10;;;1.90;;
30462;SDS011;17256;43.618;25.336;2023-05-10T12:13:13;2.63;;;2.43;;
30462;SDS011;17256;43.618;25.336;2023-05-10T12:15:40;2.47;;;2.00;;
30462;SDS011;17256;43.618;25.336;2023-05-10T12:18:11;2.50;;;2.13;;
30462;SDS011;17256;43.618;25.336;2023-05-10T12:20:37;3.07;;;1.77;;
30462;SDS011;17256;43.618;25.336;2023-05-10T12:23:04;2.87;;;2.53;;
30462;SDS011;17256;43.618;25.336;2023-05-10T12:25:34;2.03;;;1.93;;
30462;SDS011;17256;43.618;25.336;2023-05-10T12:28:02;2.93;;;2.07;;
30462;SDS011;17256;43.618;25.336;2023-05-10T12:30:30;3.97;;;1.70;;
30462;SDS011;17256;43.618;25.336;2023-05-10T12:33:12;1.67;;;1.57;;
30462;SDS011;17256;43.618;25.336;2023-05-10T12:35:50;2.83;;;1.77;;
30462;SDS011;17256;43.618;25.336;2023-05-10T12:38:32;2.20;;;2.00;;
30462;SDS011;17256;43.618;25.336;2023-05-10T12:40:59;2.13;;;2.03;;
30462;SDS011;17256;43.618;25.336;2023-05-10T12:43:26;2.10;;;2.00;;
30462;SDS011;17256;43.618;25.336;2023-05-10T12:45:57;2.40;;;2.30;;
30462;SDS011;17256;43.618;25.336;2023-05-10T12:48:31;2.30;;;1.73;;
30462;SDS011;17256;43.618;25.336;2023-05-10T12:51:02;2.93;;;2.30;;
30462;SDS011;17256;43.618;25.336;2023-05-10T12:53:37;2.53;;;2.33;;
30462;SDS011;17256;43.618;25.336;2023-05-10T12:56:07;2.17;;;1.70;;
30462;SDS011;17256;43.618;25.336;2023-05-10T12:58:56;1.60;;;1.50;;
30462;SDS011;17256;43.618;25.336;2023-05-10T13:01:42;1.83;;;1.70;;
30462;SDS011;17256;43.618;25.336;2023-05-10T13:04:10;6.10;;;1.90;;
30462;SDS011;17256;43.618;25.336;2023-05-10T13:06:40;4.87;;;3.73;;
30462;SDS011;17256;43.618;25.336;2023-05-10T13:09:14;2.03;;;1.93;;
30462;SDS011;17256;43.618;25.336;2023-05-10T13:11:41;1.87;;;1.73;;
30462;SDS011;17256;43.618;25.336;2023-05-10T13:14:07;1.90;;;1.80;;
30462;SDS011;17256;43.618;25.336;2023-05-10T13:16:33;2.70;;;1.70;;
30462;SDS011;17256;43.618;25.336;2023-05-10T13:19:02;2.33;;;1.43;;
30462;SDS011;17256;43.618;25.336;2023-05-10T13:22:30;1.50;;;1.40;;
30462;SDS011;17256;43.618;25.336;2023-05-10T13:25:44;1.60;;;1.50;;
30462;SDS011;17256;43.618;25.336;2023-05-10T13:29:07;1.83;;;1.60;;
30462;SDS011;17256;43.618;25.336;2023-05-10T13:32:00;1.30;;;1.30;;
30462;SDS011;17256;43.618;25.336;2023-05-10T13:34:49;1.77;;;1.67;;
30462;SDS011;17256;43.618;25.336;2023-05-10T13:37:18;2.87;;;1.70;;
30462;SDS011;17256;43.618;25.336;2023-05-10T13:39:53;1.93;;;1.30;;
30462;SDS011;17256;43.618;25.336;2023-05-10T13:42:40;1.67;;;1.57;;
30462;SDS011;17256;43.618;25.336;2023-05-10T13:45:06;2.03;;;1.73;;
30462;SDS011;17256;43.618;25.336;2023-05-10T13:47:32;1.37;;;1.37;;
30462;SDS011;17256;43.618;25.336;2023-05-10T13:49:59;4.00;;;1.53;;
30462;SDS011;17256;43.618;25.336;2023-05-10T13:52:24;2.70;;;2.00;;
30462;SDS011;17256;43.618;25.336;2023-05-10T13:54:51;2.03;;;1.83;;
30462;SDS011;17256;43.618;25.336;2023-05-10T13:57:19;2.07;;;1.97;;
30462;SDS011;17256;43.618;25.336;2023-05-10T13:59:45;1.93;;;1.83;;
30462;SDS011;17256;43.618;25.336;2023-05-10T14:02:11;3.17;;;1.93;;
30462;SDS011;17256;43.618;25.336;2023-05-10T14:04:38;2.67;;;2.30;;
30462;SDS011;17256;43.618;25.336;2023-05-10T14:07:04;3.37;;;2.17;;
30462;SDS011;17256;43.618;25.336;2023-05-10T14:09:29;2.40;;;2.20;;
30462;SDS011;17256;43.618;25.336;2023-05-10T14:11:55;3.70;;;2.33;;
30462;SDS011;17256;43.618;25.336;2023-05-10T14:14:21;1.70;;;1.60;;
30462;SDS011;17256;43.618;25.336;2023-05-10T14:16:46;4.60;;;2.20;;
30462;SDS011;17256;43.618;25.336;2023-05-10T14:19:12;2.30;;;2.20;;
30462;SDS011;17256;43.618;25.336;2023-05-10T14:21:38;3.17;;;2.33;;
30462;SDS011;17256;43.618;25.336;2023-05-10T14:24:05;5.23;;;2.40;;
30462;SDS011;17256;43.618;25.336;2023-05-10T14:26:32;2.47;;;2.00;;
30462;SDS011;17256;43.618;25.336;2023-05-10T14:29:03;1.93;;;1.83;;
30462;SDS011;17256;43.618;25.336;2023-05-10T14:31:49;2.60;;;2.00;;
30462;SDS011;17256;43.618;25.336;2023-05-10T14:34:17;2.43;;;1.77;;
30462;SDS011;17256;43.618;25.336;2023-05-10T14:37:18;2.40;;;2.10;;
30462;SDS011;17256;43.618;25.336;2023-05-10T14:40:32;3.53;;;1.73;;
30462;SDS011;17256;43.618;25.336;2023-05-10T14:43:00;2.43;;;2.00;;
30462;SDS011;17256;43.618;25.336;2023-05-10T14:45:29;2.07;;;1.83;;
30462;SDS011;17256;43.618;25.336;2023-05-10T14:47:58;1.80;;;1.70;;
30462;SDS011;17256;43.618;25.336;2023-05-10T14:50:25;2.27;;;1.90;;
30462;SDS011;17256;43.618;25.336;2023-05-10T14:55:26;6.10;;;2.00;;
30462;SDS011;17256;43.618;25.336;2023-05-10T14:57:55;12.97;;;2.97;;
30462;SDS011;17256;43.618;25.336;2023-05-10T15:00:27;5.83;;;2.43;;
30462;SDS011;17256;43.618;25.336;2023-05-10T15:02:55;2.17;;;1.50;;
30462;SDS011;17256;43.618;25.336;2023-05-10T15:05:24;1.57;;;1.47;;
30462;SDS011;17256;43.618;25.336;2023-05-10T15:07:50;2.07;;;1.67;;
30462;SDS011;17256;43.618;25.336;2023-05-10T15:10:21;4.07;;;1.90;;
30462;SDS011;17256;43.618;25.336;2023-05-10T15:12:50;2.80;;;2.60;;
30462;SDS011;17256;43.618;25.336;2023-05-10T15:15:19;3.23;;;2.93;;
30462;SDS011;17256;43.618;25.336;2023-05-10T15:17:47;2.90;;;2.57;;
30462;SDS011;17256;43.618;25.336;2023-05-10T15:20:13;2.17;;;1.97;;
30462;SDS011;17256;43.618;25.336;2023-05-10T15:22:41;2.40;;;2.20;;
30462;SDS011;17256;43.618;25.336;2023-05-10T15:25:07;2.33;;;2.13;;
30462;SDS011;17256;43.618;25.336;2023-05-10T15:27:37;2.40;;;2.20;;
30462;SDS011;17256;43.618;25.336;2023-05-10T15:30:03;2.43;;;2.23;;
30462;SDS011;17256;43.618;25.336;2023-05-10T15:32:29;3.57;;;2.40;;
30462;SDS011;17256;43.618;25.336;2023-05-10T15:34:54;3.03;;;2.77;;
30462;SDS011;17256;43.618;25.336;2023-05-10T15:37:20;4.20;;;3.27;;
30462;SDS011;17256;43.618;25.336;2023-05-10T15:39:48;2.83;;;2.63;;
30462;SDS011;17256;43.618;25.336;2023-05-10T15:42:14;2.57;;;2.37;;
30462;SDS011;17256;43.618;25.336;2023-05-10T15:47:17;3.20;;;2.60;;
30462;SDS011;17256;43.618;25.336;2023-05-10T15:49:48;5.93;;;2.53;;
30462;SDS011;17256;43.618;25.336;2023-05-10T15:52:14;3.33;;;2.73;;
30462;SDS011;17256;43.618;25.336;2023-05-10T15:54:40;2.87;;;2.67;;
30462;SDS011;17256;43.618;25.336;2023-05-10T15:57:06;4.80;;;3.33;;
30462;SDS011;17256;43.618;25.336;2023-05-10T15:59:32;3.57;;;3.27;;
30462;SDS011;17256;43.618;25.336;2023-05-10T16:01:58;2.93;;;2.53;;
30462;SDS011;17256;43.618;25.336;2023-05-10T16:04:23;6.17;;;2.60;;
30462;SDS011;17256;43.618;25.336;2023-05-10T16:06:50;3.73;;;3.10;;
30462;SDS011;17256;43.618;25.336;2023-05-10T16:09:15;4.17;;;3.00;;
30462;SDS011;17256;43.618;25.336;2023-05-10T16:11:44;7.47;;;3.00;;
30462;SDS011;17256;43.618;25.336;2023-05-10T16:14:09;3.93;;;2.80;;
30462;SDS011;17256;43.618;25.336;2023-05-10T16:16:35;3.30;;;3.00;;
30462;SDS011;17256;43.618;25.336;2023-05-10T16:19:08;4.33;;;2.73;;
30462;SDS011;17256;43.618;25.336;2023-05-10T16:22:07;3.70;;;3.27;;
30462;SDS011;17256;43.618;25.336;2023-05-10T16:24:37;2.80;;;2.60;;
30462;SDS011;17256;43.618;25.336;2023-05-10T16:27:09;3.10;;;2.73;;
30462;SDS011;17256;43.618;25.336;2023-05-10T16:29:37;3.20;;;2.80;;
30462;SDS011;17256;43.618;25.336;2023-05-10T16:32:04;3.17;;;2.87;;
30462;SDS011;17256;43.618;25.336;2023-05-10T16:34:29;3.37;;;3.03;;